createdAt,value
2018-08-28T00:01:54.703Z,2.90
2018-08-28T00:04:22.875Z,2.17
2018-08-28T00:06:51.054Z,3.10
2018-08-28T00:09:19.231Z,2.87
2018-08-28T00:11:47.412Z,2.00
2018-08-28T00:14:15.588Z,1.83
2018-08-28T00:16:43.770Z,1.60
2018-08-28T00:19:11.947Z,3.83
2018-08-28T00:21:40.145Z,1.13
2018-08-28T00:24:08.365Z,2.23
2018-08-28T00:26:36.559Z,1.77
2018-08-28T00:29:04.748Z,2.27
2018-08-28T00:31:32.972Z,1.10
2018-08-28T00:34:01.163Z,1.83
2018-08-28T00:36:29.330Z,2.50
2018-08-28T00:38:57.523Z,1.97
2018-08-28T00:41:25.691Z,2.20
2018-08-28T00:43:53.862Z,2.10
2018-08-28T00:46:22.051Z,1.90
2018-08-28T00:48:50.227Z,3.80
2018-08-28T00:51:18.394Z,1.53
2018-08-28T00:53:46.571Z,1.90
2018-08-28T00:56:14.739Z,5.20
2018-08-28T00:58:43.869Z,3.13
2018-08-28T01:01:12.077Z,1.90
2018-08-28T01:03:40.272Z,2.40
2018-08-28T01:06:08.443Z,3.40
2018-08-28T01:08:36.611Z,3.50
2018-08-28T01:11:05.003Z,2.50
2018-08-28T01:13:33.186Z,2.40
2018-08-28T01:16:01.369Z,1.80
2018-08-28T01:18:29.554Z,2.23
2018-08-28T01:20:57.722Z,1.80
2018-08-28T01:23:25.899Z,2.40
2018-08-28T01:25:54.071Z,2.33
2018-08-28T01:28:22.255Z,2.43
2018-08-28T01:30:50.421Z,3.67
2018-08-28T01:33:18.608Z,3.43
2018-08-28T01:35:46.782Z,2.60
2018-08-28T01:38:15.124Z,1.63
2018-08-28T01:40:43.332Z,2.33
2018-08-28T01:43:17.254Z,3.60
2018-08-28T01:45:45.427Z,3.43
2018-08-28T01:48:13.894Z,2.13
2018-08-28T01:50:42.370Z,1.93
2018-08-28T01:53:10.548Z,2.43
2018-08-28T01:55:38.714Z,2.07
2018-08-28T01:58:06.894Z,3.03
2018-08-28T02:00:35.107Z,3.47
2018-08-28T02:03:03.299Z,3.30
2018-08-28T02:05:31.487Z,2.10
2018-08-28T02:07:59.666Z,2.87
2018-08-28T02:10:27.837Z,2.57
2018-08-28T02:12:56.299Z,2.33
2018-08-28T02:15:24.496Z,2.37
2018-08-28T02:17:52.692Z,3.63
2018-08-28T02:20:20.871Z,2.20
2018-08-28T02:22:49.049Z,2.60
2018-08-28T02:25:17.219Z,2.27
2018-08-28T02:27:45.396Z,1.67
2018-08-28T02:30:13.583Z,1.77
2018-08-28T02:32:41.750Z,2.50
2018-08-28T02:35:09.924Z,2.57
2018-08-28T02:37:38.091Z,3.30
2018-08-28T02:40:06.371Z,2.53
2018-08-28T02:42:34.539Z,2.90
2018-08-28T02:45:02.722Z,2.10
2018-08-28T02:47:30.883Z,2.90
2018-08-28T02:49:59.080Z,3.03
2018-08-28T02:52:27.291Z,2.70
2018-08-28T02:54:55.488Z,2.40
2018-08-28T02:57:23.676Z,2.77
2018-08-28T02:59:51.946Z,3.00
2018-08-28T03:02:20.114Z,2.37
2018-08-28T03:04:48.303Z,3.80
2018-08-28T03:07:16.766Z,3.47
2018-08-28T03:09:45.238Z,4.47
2018-08-28T03:12:13.710Z,2.77
2018-08-28T03:14:41.891Z,2.60
2018-08-28T03:17:10.062Z,3.13
2018-08-28T03:19:38.414Z,3.27
2018-08-28T03:22:06.615Z,3.27
2018-08-28T03:24:34.798Z,3.20
2018-08-28T03:27:02.971Z,2.80
2018-08-28T03:29:31.171Z,3.43
2018-08-28T03:31:59.386Z,3.63
2018-08-28T03:34:27.580Z,2.33
2018-08-28T03:36:55.775Z,6.50
2018-08-28T03:39:24.230Z,2.77
2018-08-28T03:41:52.399Z,3.70
2018-08-28T03:44:20.590Z,2.77
2018-08-28T03:46:48.790Z,2.90
2018-08-28T03:49:16.975Z,6.83
2018-08-28T03:51:45.151Z,2.97
2018-08-28T03:54:13.350Z,2.43
2018-08-28T03:56:41.527Z,2.93
2018-08-28T03:59:09.703Z,2.87
2018-08-28T04:01:37.870Z,2.57
2018-08-28T04:04:06.055Z,2.83
2018-08-28T04:06:34.243Z,3.30
2018-08-28T04:09:02.476Z,3.27
2018-08-28T04:11:30.663Z,3.30
2018-08-28T04:13:58.876Z,3.67
2018-08-28T04:16:27.042Z,5.57
2018-08-28T04:18:55.221Z,6.00
2018-08-28T04:21:23.398Z,2.70
2018-08-28T04:23:51.580Z,3.80
2018-08-28T04:26:19.754Z,5.27
2018-08-28T04:28:47.930Z,9.00
2018-08-28T04:31:16.167Z,3.00
2018-08-28T04:33:44.655Z,3.53
2018-08-28T04:36:12.830Z,2.93
2018-08-28T04:38:41.003Z,3.23
2018-08-28T04:41:09.203Z,3.97
2018-08-28T04:43:37.630Z,3.33
2018-08-28T04:46:05.852Z,7.33
2018-08-28T04:48:34.069Z,3.37
2018-08-28T04:51:02.244Z,5.00
2018-08-28T04:53:30.419Z,6.17
2018-08-28T04:55:58.600Z,3.60
2018-08-28T04:58:26.780Z,5.87
2018-08-28T05:00:54.952Z,5.47
2018-08-28T05:03:23.122Z,4.70
2018-08-28T05:05:51.308Z,4.07
2018-08-28T05:08:19.790Z,3.63
2018-08-28T05:10:47.971Z,5.53
2018-08-28T05:13:16.142Z,3.77
2018-08-28T05:15:44.334Z,3.53
2018-08-28T05:18:12.790Z,4.83
2018-08-28T05:20:41.034Z,4.67
2018-08-28T05:23:09.203Z,5.07
2018-08-28T05:25:37.395Z,3.67
2018-08-28T05:28:05.596Z,4.57
2018-08-28T05:30:33.917Z,7.27
2018-08-28T05:33:02.173Z,4.70
2018-08-28T05:35:30.368Z,3.90
2018-08-28T05:37:58.573Z,4.23
2018-08-28T05:40:26.719Z,3.47
2018-08-28T05:42:55.131Z,3.93
2018-08-28T05:45:23.306Z,4.57
2018-08-28T05:47:51.479Z,3.37
2018-08-28T05:50:19.662Z,3.33
2018-08-28T05:52:47.835Z,3.33
2018-08-28T05:55:16.011Z,4.33
2018-08-28T05:57:44.183Z,5.93
2018-08-28T06:00:12.364Z,3.03
2018-08-28T06:02:40.539Z,4.23
2018-08-28T06:05:09.155Z,5.40
2018-08-28T06:07:37.435Z,6.37
2018-08-28T06:10:06.495Z,4.97
2018-08-28T06:12:34.700Z,6.83
2018-08-28T06:15:03.079Z,4.03
2018-08-28T06:17:31.603Z,4.53
2018-08-28T06:19:59.766Z,4.50
2018-08-28T06:22:28.210Z,3.63
2018-08-28T06:24:56.379Z,4.67
2018-08-28T06:27:24.556Z,4.53
2018-08-28T06:29:52.974Z,3.50
2018-08-28T06:32:21.154Z,6.60
2018-08-28T06:34:49.326Z,5.37
2018-08-28T06:37:17.513Z,5.47
2018-08-28T06:39:45.670Z,4.50
2018-08-28T06:42:13.850Z,3.97
2018-08-28T06:44:42.019Z,5.00
2018-08-28T06:47:10.207Z,5.63
2018-08-28T06:49:38.647Z,3.83
2018-08-28T06:52:06.770Z,5.30
2018-08-28T06:54:34.981Z,3.20
2018-08-28T06:57:03.459Z,5.40
2018-08-28T06:59:31.647Z,3.97
2018-08-28T07:01:59.823Z,4.67
2018-08-28T07:04:27.990Z,4.83
2018-08-28T07:06:56.170Z,5.20
2018-08-28T07:09:24.338Z,3.23
2018-08-28T07:11:52.527Z,3.47
2018-08-28T07:14:20.931Z,3.67
2018-08-28T07:16:49.103Z,4.00
2018-08-28T07:19:17.271Z,4.60
2018-08-28T07:21:45.453Z,2.90
2018-08-28T07:24:13.635Z,2.83
2018-08-28T07:26:42.039Z,2.60
2018-08-28T07:29:10.218Z,2.03
2018-08-28T07:31:38.434Z,3.00
2018-08-28T07:34:06.651Z,2.57
2018-08-28T07:36:34.830Z,2.37
2018-08-28T07:39:03.450Z,2.43
2018-08-28T07:41:31.659Z,4.27
2018-08-28T07:43:59.852Z,2.37
2018-08-28T07:46:28.023Z,1.93
2018-08-28T07:48:56.202Z,5.13
2018-08-28T07:51:24.438Z,2.43
2018-08-28T07:53:52.623Z,3.00
2018-08-28T07:56:20.775Z,2.17
2018-08-28T07:58:48.978Z,4.63
2018-08-28T08:01:17.220Z,4.80
2018-08-28T08:03:46.474Z,3.37
2018-08-28T08:06:14.653Z,3.07
2018-08-28T08:08:42.828Z,2.07
2018-08-28T08:11:11.011Z,2.03
2018-08-28T08:13:39.195Z,3.17
2018-08-28T08:16:07.424Z,2.23
2018-08-28T08:18:36.156Z,2.57
2018-08-28T08:21:04.328Z,4.37
2018-08-28T08:23:32.519Z,2.97
2018-08-28T08:26:00.728Z,2.63
2018-08-28T08:28:28.949Z,1.90
2018-08-28T08:30:57.391Z,2.30
2018-08-28T08:33:25.570Z,3.13
2018-08-28T08:35:53.747Z,2.40
2018-08-28T08:38:21.926Z,3.30
2018-08-28T08:40:50.090Z,1.80
2018-08-28T08:43:18.591Z,6.40
2018-08-28T08:45:46.764Z,2.80
2018-08-28T08:48:14.955Z,2.03
2018-08-28T08:50:43.160Z,2.93
2018-08-28T08:53:11.339Z,2.57
2018-08-28T08:55:39.518Z,2.43
2018-08-28T08:58:08.015Z,2.77
2018-08-28T09:00:36.181Z,2.57
2018-08-28T09:03:04.534Z,2.60
2018-08-28T09:05:32.704Z,2.73
2018-08-28T09:08:00.912Z,2.13
2018-08-28T09:10:29.129Z,4.53
2018-08-28T09:12:57.336Z,5.00
2018-08-28T09:15:25.550Z,3.07
2018-08-28T09:17:53.774Z,2.53
2018-08-28T09:20:21.951Z,2.13
2018-08-28T09:22:50.143Z,2.67
2018-08-28T09:25:18.318Z,3.13
2018-08-28T09:27:46.499Z,2.90
2018-08-28T09:30:14.666Z,4.67
2018-08-28T09:32:42.843Z,2.47
2018-08-28T09:35:11.031Z,2.47
2018-08-28T09:37:39.223Z,3.57
2018-08-28T09:40:07.664Z,3.70
2018-08-28T09:42:35.842Z,1.80
2018-08-28T09:45:04.027Z,2.20
2018-08-28T09:47:32.206Z,4.80
2018-08-28T09:50:00.453Z,2.30
2018-08-28T09:52:28.627Z,2.20
2018-08-28T09:54:56.817Z,3.57
2018-08-28T09:57:24.988Z,3.10
2018-08-28T09:59:53.164Z,3.03
2018-08-28T10:02:21.331Z,3.93
2018-08-28T10:04:49.554Z,2.97
2018-08-28T10:07:17.679Z,4.30
2018-08-28T10:09:45.858Z,3.47
2018-08-28T10:12:14.031Z,3.80
2018-08-28T10:14:42.219Z,3.77
2018-08-28T10:17:10.739Z,3.73
2018-08-28T10:19:38.891Z,3.93
2018-08-28T10:22:07.070Z,3.90
2018-08-28T10:24:35.257Z,6.30
2018-08-28T10:27:03.456Z,3.73
2018-08-28T10:29:31.680Z,5.27
2018-08-28T10:31:59.872Z,5.13
2018-08-28T10:34:28.067Z,4.43
2018-08-28T10:39:23.726Z,4.43
2018-08-28T10:41:51.902Z,4.27
2018-08-28T10:44:20.088Z,4.20
2018-08-28T11:04:01.260Z,4.60
2018-08-28T11:06:29.403Z,3.20
2018-08-28T11:08:57.582Z,4.03
2018-08-28T11:11:25.791Z,4.07
2018-08-28T11:13:54.012Z,3.50
2018-08-28T11:16:22.203Z,4.47
2018-08-28T11:18:50.394Z,13.10
2018-08-28T11:21:18.567Z,4.03
2018-08-28T11:23:46.756Z,4.33
2018-08-28T11:26:15.163Z,4.13
2018-08-28T11:28:43.339Z,9.07
2018-08-28T11:31:11.533Z,4.77
2018-08-28T11:33:39.683Z,4.30
2018-08-28T11:36:07.863Z,5.67
2018-08-28T11:38:36.043Z,5.13
2018-08-28T11:41:04.267Z,4.93
2018-08-28T11:43:32.438Z,5.90
2018-08-28T11:46:00.615Z,5.60
2018-08-28T11:48:28.787Z,5.47
2018-08-28T11:50:57.303Z,6.77
2018-08-28T11:53:25.491Z,5.53
2018-08-28T11:55:53.719Z,6.10
2018-08-28T11:58:21.937Z,5.70
2018-08-28T12:00:50.165Z,7.60
2018-08-28T12:03:18.400Z,6.40
2018-08-28T12:05:46.587Z,5.80
2018-08-28T12:08:14.763Z,6.00
2018-08-28T12:10:43.266Z,6.10
2018-08-28T12:13:11.494Z,5.17
2018-08-28T12:15:39.650Z,5.13
2018-08-28T12:18:07.830Z,5.70
2018-08-28T12:20:36.032Z,5.70
2018-08-28T12:23:05.102Z,5.28
2018-08-28T12:25:33.288Z,6.97
2018-08-28T12:28:01.462Z,5.62
2018-08-28T12:30:29.666Z,6.20
2018-08-28T12:32:57.858Z,6.03
2018-08-28T12:35:26.043Z,4.95
2018-08-28T12:37:54.218Z,6.22
2018-08-28T12:40:22.403Z,5.33
2018-08-28T12:42:50.579Z,6.20
2018-08-28T12:45:18.767Z,6.05
2018-08-28T12:47:46.946Z,6.50
2018-08-28T12:50:15.138Z,6.60
2018-08-28T12:52:43.357Z,7.28
2018-08-28T12:55:11.593Z,5.87
2018-08-28T12:57:39.833Z,5.35
2018-08-28T13:00:08.231Z,7.05
2018-08-28T13:02:36.413Z,7.17
2018-08-28T13:05:04.906Z,5.22
2018-08-28T13:07:33.125Z,6.08
2018-08-28T13:10:01.258Z,5.40
2018-08-28T13:12:29.453Z,6.30
2018-08-28T13:14:57.607Z,5.85
2018-08-28T13:17:25.819Z,9.80
2018-08-28T13:19:54.007Z,6.33
2018-08-28T13:22:22.191Z,6.17
2018-08-28T13:24:50.367Z,7.10
2018-08-28T13:27:18.559Z,5.75
2018-08-28T13:29:47.074Z,5.90
2018-08-28T13:32:15.254Z,7.03
2018-08-28T13:34:43.431Z,8.10
2018-08-28T13:37:12.275Z,5.50
2018-08-28T13:39:40.450Z,6.70
2018-08-28T13:42:08.637Z,6.17
2018-08-28T13:44:36.821Z,5.75
2018-08-28T13:47:05.462Z,6.33
2018-08-28T13:49:33.561Z,5.72
2018-08-28T13:52:01.750Z,6.28
2018-08-28T13:54:30.071Z,6.45
2018-08-28T13:56:58.123Z,8.35
2018-08-28T13:59:26.314Z,6.28
2018-08-28T14:01:54.535Z,6.60
2018-08-28T14:04:22.719Z,5.95
2018-08-28T14:06:50.911Z,5.58
2018-08-28T14:09:19.079Z,6.00
2018-08-28T14:11:47.258Z,6.60
2018-08-28T14:14:15.430Z,7.67
2018-08-28T14:16:43.666Z,7.35
2018-08-28T14:19:11.871Z,5.95
2018-08-28T14:21:40.091Z,6.08
2018-08-28T14:24:08.271Z,7.33
2018-08-28T14:26:36.454Z,6.08
2018-08-28T14:29:04.785Z,6.08
2018-08-28T14:31:32.854Z,7.42
2018-08-28T14:34:01.350Z,6.60
2018-08-28T14:36:29.563Z,6.42
2018-08-28T14:38:57.781Z,4.95
2018-08-28T14:41:25.968Z,6.92
2018-08-28T14:43:54.147Z,5.47
2018-08-28T14:46:22.689Z,6.00
2018-08-28T14:48:50.902Z,5.80
2018-08-28T14:51:19.074Z,6.85
2018-08-28T14:53:47.267Z,6.35
2018-08-28T14:56:15.428Z,5.95
2018-08-28T14:58:43.615Z,5.75
2018-08-28T15:01:11.836Z,6.05
2018-08-28T15:03:40.101Z,6.28
2018-08-28T15:06:08.335Z,6.50
2018-08-28T15:08:36.535Z,6.20
2018-08-28T15:11:04.703Z,6.30
2018-08-28T15:13:32.878Z,6.70
2018-08-28T15:16:01.055Z,6.65
2018-08-28T15:18:29.243Z,6.47
2018-08-28T15:20:57.720Z,6.37
2018-08-28T15:23:26.279Z,6.40
2018-08-28T15:25:54.510Z,7.62
2018-08-28T15:28:22.800Z,5.95
2018-08-28T15:30:51.044Z,5.58
2018-08-28T15:33:19.240Z,6.67
2018-08-28T15:35:47.471Z,6.58
2018-08-28T15:38:15.664Z,6.00
2018-08-28T15:40:43.958Z,6.80
2018-08-28T15:43:12.125Z,6.63
2018-08-28T15:45:40.302Z,6.33
2018-08-28T15:48:08.995Z,6.05
2018-08-28T15:50:37.176Z,6.25
2018-08-28T15:53:05.603Z,6.20
2018-08-28T15:55:33.808Z,7.03
2018-08-28T15:58:02.387Z,6.73
2018-08-28T16:00:30.559Z,6.63
2018-08-28T16:02:58.739Z,6.17
2018-08-28T16:05:26.912Z,6.30
2018-08-28T16:07:55.147Z,6.23
2018-08-28T16:10:23.317Z,6.70
2018-08-28T16:12:51.511Z,6.20
2018-08-28T16:15:19.686Z,6.70
2018-08-28T16:17:47.858Z,7.33
2018-08-28T16:20:16.042Z,7.20
2018-08-28T16:22:49.652Z,7.27
2018-08-28T16:25:17.877Z,6.90
2018-08-28T16:27:46.096Z,6.03
2018-08-28T16:30:14.308Z,6.40
2018-08-28T16:32:42.495Z,5.13
2018-08-28T16:35:10.683Z,7.27
2018-08-28T16:37:38.856Z,8.23
2018-08-28T16:40:07.106Z,7.40
2018-08-28T16:42:35.306Z,7.33
2018-08-28T16:45:03.523Z,6.80
2018-08-28T16:47:31.875Z,9.63
2018-08-28T16:50:00.099Z,6.37
2018-08-28T16:52:28.274Z,6.47
2018-08-28T16:54:56.487Z,6.60
2018-08-28T16:57:24.676Z,7.57
2018-08-28T16:59:52.878Z,6.03
2018-08-28T17:02:21.062Z,6.67
2018-08-28T17:04:49.238Z,7.10
2018-08-28T17:07:17.704Z,7.33
2018-08-28T17:09:45.867Z,6.67
2018-08-28T17:12:14.096Z,7.40
2018-08-28T17:14:42.295Z,5.90
2018-08-28T17:17:10.423Z,6.90
2018-08-28T17:19:38.642Z,7.93
2018-08-28T17:22:06.902Z,6.77
2018-08-28T17:24:35.185Z,7.57
2018-08-28T17:27:03.422Z,7.10
2018-08-28T17:29:31.626Z,6.87
2018-08-28T17:31:59.862Z,6.73
2018-08-28T17:34:28.059Z,6.90
2018-08-28T17:36:56.329Z,7.20
2018-08-28T17:39:24.488Z,8.23
2018-08-28T17:41:52.709Z,6.50
2018-08-28T17:44:20.944Z,7.60
2018-08-28T17:46:49.154Z,8.93
2018-08-28T17:49:17.424Z,6.67
2018-08-28T17:51:46.107Z,7.50
2018-08-28T17:54:14.314Z,8.57
2018-08-28T17:56:42.511Z,7.37
2018-08-28T17:59:10.715Z,8.83
2018-08-28T18:01:39.414Z,7.90
2018-08-28T18:04:08.294Z,9.60
2018-08-28T18:06:36.494Z,8.53
2018-08-28T18:09:05.720Z,7.60
2018-08-28T18:11:34.058Z,7.87
2018-08-28T18:14:02.260Z,8.60
2018-08-28T18:16:30.551Z,9.60
2018-08-28T18:18:59.175Z,7.90
2018-08-28T18:21:27.355Z,8.67
2018-08-28T18:23:55.562Z,7.90
2018-08-28T18:26:23.769Z,9.13
2018-08-28T18:28:52.067Z,8.27
2018-08-28T18:31:20.251Z,10.43
2018-08-28T18:33:48.453Z,8.27
2018-08-28T18:36:16.667Z,8.50
2018-08-28T18:38:44.864Z,8.27
2018-08-28T18:41:13.052Z,10.53
2018-08-28T18:43:41.227Z,7.67
2018-08-28T18:46:09.403Z,7.53
2018-08-28T18:48:37.580Z,9.10
2018-08-28T18:51:05.759Z,7.80
2018-08-28T18:53:33.936Z,11.57
2018-08-28T18:56:02.296Z,8.07
2018-08-28T18:58:30.418Z,9.37
2018-08-28T19:00:58.831Z,9.80
2018-08-28T19:03:27.011Z,8.73
2018-08-28T19:05:55.187Z,8.57
2018-08-28T19:08:23.354Z,8.70
2018-08-28T19:10:51.535Z,8.57
2018-08-28T19:13:19.715Z,9.20
2018-08-28T19:15:47.896Z,10.23
2018-08-28T19:18:16.072Z,9.30
2018-08-28T19:20:44.326Z,9.97
2018-08-28T19:23:12.451Z,8.43
2018-08-28T19:25:40.664Z,9.47
2018-08-28T19:28:08.896Z,9.87
2018-08-28T19:30:37.088Z,8.83
2018-08-28T19:33:05.294Z,10.43
2018-08-28T19:35:33.475Z,9.03
2018-08-28T19:38:01.656Z,8.30
2018-08-28T19:40:29.857Z,14.27
2018-08-28T19:42:58.060Z,8.43
2018-08-28T19:45:26.242Z,11.37
2018-08-28T19:47:54.427Z,10.30
2018-08-28T19:50:22.606Z,12.30
2018-08-28T19:52:51.074Z,9.70
2018-08-28T19:55:19.267Z,10.97
2018-08-28T19:57:47.454Z,12.67
2018-08-28T20:00:15.633Z,10.27
2018-08-28T20:02:43.819Z,9.37
2018-08-28T20:05:12.003Z,9.93
2018-08-28T20:07:40.450Z,11.20
2018-08-28T20:10:08.647Z,9.00
2018-08-28T20:12:36.872Z,9.57
2018-08-28T20:15:05.098Z,11.70
2018-08-28T20:17:33.311Z,10.10
2018-08-28T20:20:01.543Z,8.97
2018-08-28T20:22:29.731Z,11.60
2018-08-28T20:24:57.915Z,9.67
2018-08-28T20:27:26.102Z,10.93
2018-08-28T20:29:54.325Z,9.53
2018-08-28T20:32:22.752Z,10.10
2018-08-28T20:34:50.923Z,8.90
2018-08-28T20:37:19.111Z,9.33
2018-08-28T20:39:47.279Z,12.73
2018-08-28T20:42:15.459Z,10.17
2018-08-28T20:44:43.623Z,9.37
2018-08-28T20:47:11.806Z,10.20
2018-08-28T20:49:40.219Z,9.93
2018-08-28T20:52:08.399Z,10.40
2018-08-28T20:54:36.592Z,9.80
2018-08-28T20:57:04.804Z,10.67
2018-08-28T20:59:32.996Z,8.87
2018-08-28T21:02:01.163Z,10.30
2018-08-28T21:04:29.366Z,11.87
2018-08-28T21:06:57.683Z,9.90
2018-08-28T21:09:25.707Z,9.83
2018-08-28T21:11:53.892Z,11.47
2018-08-28T21:14:22.063Z,10.13
2018-08-28T21:16:50.451Z,11.40
2018-08-28T21:19:18.858Z,11.17
2018-08-28T21:21:47.082Z,11.43
2018-08-28T21:24:15.471Z,9.20
2018-08-28T21:26:43.647Z,12.93
2018-08-28T21:29:11.886Z,10.33
2018-08-28T21:31:40.067Z,9.67
2018-08-28T21:34:08.241Z,12.57
2018-08-28T21:36:36.452Z,10.97
2018-08-28T21:39:05.452Z,11.93
2018-08-28T21:41:33.848Z,10.10
2018-08-28T21:44:02.041Z,12.37
2018-08-28T21:46:31.106Z,9.30
2018-08-28T21:48:59.290Z,11.17
2018-08-28T21:51:27.459Z,9.87
2018-08-28T21:53:55.693Z,10.23
2018-08-28T21:56:23.814Z,10.13
2018-08-28T21:58:51.999Z,11.70
2018-08-28T22:01:20.176Z,10.00
2018-08-28T22:03:48.359Z,12.33
2018-08-28T22:06:21.923Z,9.63
2018-08-28T22:08:50.122Z,11.80
2018-08-28T22:11:18.291Z,9.57
2018-08-28T22:13:46.500Z,12.00
2018-08-28T22:16:14.705Z,9.50
2018-08-28T22:18:42.899Z,12.00
2018-08-28T22:21:11.059Z,8.80
2018-08-28T22:23:39.225Z,11.83
2018-08-28T22:26:07.618Z,9.43
2018-08-28T22:28:35.790Z,11.47
2018-08-28T22:31:03.951Z,9.03
2018-08-28T22:33:32.134Z,10.93
2018-08-28T22:36:00.343Z,8.43
2018-08-28T22:38:28.499Z,11.17
2018-08-28T22:40:56.654Z,9.63
2018-08-28T22:43:24.810Z,10.73
2018-08-28T22:45:52.970Z,9.80
2018-08-28T22:48:21.131Z,12.63
2018-08-28T22:50:49.286Z,8.87
2018-08-28T22:53:17.474Z,10.73
2018-08-28T22:55:45.664Z,9.53
2018-08-28T22:58:13.836Z,12.20
2018-08-28T23:00:42.011Z,10.30
2018-08-28T23:03:10.167Z,12.03
2018-08-28T23:05:38.599Z,9.20
2018-08-28T23:08:06.758Z,11.57
2018-08-28T23:10:34.931Z,11.73
2018-08-28T23:13:03.083Z,10.30
2018-08-28T23:15:31.255Z,11.57
2018-08-28T23:17:59.398Z,9.33
2018-08-28T23:20:27.567Z,11.50
2018-08-28T23:22:55.719Z,8.00
2018-08-28T23:25:23.883Z,10.83
2018-08-28T23:27:52.047Z,10.87
2018-08-28T23:30:20.498Z,9.83
2018-08-28T23:32:48.667Z,12.67
2018-08-28T23:35:16.863Z,11.60
2018-08-28T23:37:45.036Z,9.00
2018-08-28T23:40:13.211Z,10.83
2018-08-28T23:42:41.367Z,10.13
2018-08-28T23:45:09.536Z,11.13
2018-08-28T23:47:38.002Z,11.57
2018-08-28T23:50:06.171Z,11.27
2018-08-28T23:52:34.332Z,10.93
2018-08-28T23:55:02.494Z,12.30
2018-08-28T23:57:30.652Z,9.93
2018-08-28T23:59:58.815Z,11.07
